sensor_id;sensor_type;location;lat;lon;timestamp;temperature;humidity
19435;DHT22;9853;50.848;4.108;2024-03-23T00:53:39;8.80;99.90
19435;DHT22;9853;50.848;4.108;2024-03-23T00:55:41;8.70;99.90
19435;DHT22;9853;50.848;4.108;2024-03-23T00:57:47;8.70;99.90
19435;DHT22;9853;50.848;4.108;2024-03-23T00:59:54;8.60;99.90
19435;DHT22;9853;50.848;4.108;2024-03-23T01:02:03;8.50;99.90
19435;DHT22;9853;50.848;4.108;2024-03-23T01:04:09;8.50;99.90
19435;DHT22;9853;50.848;4.108;2024-03-23T01:06:18;8.40;99.90
19435;DHT22;9853;50.848;4.108;2024-03-23T01:08:28;8.40;99.90
19435;DHT22;9853;50.848;4.108;2024-03-23T01:10:34;8.30;99.90
19435;DHT22;9853;50.848;4.108;2024-03-23T01:12:37;8.10;99.90
19435;DHT22;9853;50.848;4.108;2024-03-23T01:14:40;8.10;99.90
19435;DHT22;9853;50.848;4.108;2024-03-23T01:16:59;8.00;99.90
19435;DHT22;9853;50.848;4.108;2024-03-23T01:19:20;8.00;99.90
19435;DHT22;9853;50.848;4.108;2024-03-23T01:21:28;8.00;99.90
19435;DHT22;9853;50.848;4.108;2024-03-23T01:23:31;7.90;99.90
19435;DHT22;9853;50.848;4.108;2024-03-23T01:25:32;8.00;99.90
19435;DHT22;9853;50.848;4.108;2024-03-23T01:27:39;8.10;99.90
19435;DHT22;9853;50.848;4.108;2024-03-23T01:29:49;8.00;99.90
19435;DHT22;9853;50.848;4.108;2024-03-23T01:31:50;8.00;99.90
19435;DHT22;9853;50.848;4.108;2024-03-23T01:33:54;8.10;99.90
19435;DHT22;9853;50.848;4.108;2024-03-23T01:35:55;7.90;99.90
19435;DHT22;9853;50.848;4.108;2024-03-23T01:37:56;7.90;99.90
19435;DHT22;9853;50.848;4.108;2024-03-23T01:39:59;7.80;99.90
19435;DHT22;9853;50.848;4.108;2024-03-23T01:42:00;8.00;99.90
19435;DHT22;9853;50.848;4.108;2024-03-23T01:44:06;8.10;99.90
19435;DHT22;9853;50.848;4.108;2024-03-23T01:46:11;8.20;99.90
19435;DHT22;9853;50.848;4.108;2024-03-23T01:48:12;8.10;99.90
19435;DHT22;9853;50.848;4.108;2024-03-23T01:50:14;8.10;99.90
19435;DHT22;9853;50.848;4.108;2024-03-23T01:52:18;8.20;99.90
19435;DHT22;9853;50.848;4.108;2024-03-23T01:54:20;8.40;99.90
19435;DHT22;9853;50.848;4.108;2024-03-23T01:56:26;8.50;99.90
19435;DHT22;9853;50.848;4.108;2024-03-23T01:58:27;8.60;99.90
19435;DHT22;9853;50.848;4.108;2024-03-23T02:00:28;8.60;99.90
19435;DHT22;9853;50.848;4.108;2024-03-23T02:02:30;8.50;99.90
19435;DHT22;9853;50.848;4.108;2024-03-23T02:04:31;8.50;99.90
19435;DHT22;9853;50.848;4.108;2024-03-23T02:06:35;8.50;99.90
19435;DHT22;9853;50.848;4.108;2024-03-23T02:08:39;8.40;99.90
19435;DHT22;9853;50.848;4.108;2024-03-23T02:10:44;8.50;99.90
19435;DHT22;9853;50.848;4.108;2024-03-23T02:12:45;8.60;99.90
19435;DHT22;9853;50.848;4.108;2024-03-23T02:14:46;8.70;99.90
19435;DHT22;9853;50.848;4.108;2024-03-23T02:16:47;8.70;99.90
19435;DHT22;9853;50.848;4.108;2024-03-23T02:18:50;8.90;99.90
19435;DHT22;9853;50.848;4.108;2024-03-23T02:20:51;8.80;99.90
19435;DHT22;9853;50.848;4.108;2024-03-23T02:22:53;8.80;99.90
19435;DHT22;9853;50.848;4.108;2024-03-23T02:24:56;8.90;99.90
19435;DHT22;9853;50.848;4.108;2024-03-23T02:26:58;8.80;99.90
19435;DHT22;9853;50.848;4.108;2024-03-23T02:28:59;8.70;99.90
19435;DHT22;9853;50.848;4.108;2024-03-23T02:31:00;8.80;99.90
19435;DHT22;9853;50.848;4.108;2024-03-23T02:33:02;8.80;99.90
19435;DHT22;9853;50.848;4.108;2024-03-23T02:35:03;8.60;99.90
19435;DHT22;9853;50.848;4.108;2024-03-23T02:37:12;8.60;99.90
19435;DHT22;9853;50.848;4.108;2024-03-23T02:39:16;8.50;99.90
19435;DHT22;9853;50.848;4.108;2024-03-23T02:41:22;8.50;99.90
19435;DHT22;9853;50.848;4.108;2024-03-23T02:43:29;8.50;99.90
19435;DHT22;9853;50.848;4.108;2024-03-23T02:45:30;8.40;99.90
19435;DHT22;9853;50.848;4.108;2024-03-23T02:47:34;8.40;99.90
19435;DHT22;9853;50.848;4.108;2024-03-23T02:49:38;8.30;99.90
19435;DHT22;9853;50.848;4.108;2024-03-23T02:51:41;8.20;99.90
19435;DHT22;9853;50.848;4.108;2024-03-23T02:53:46;8.20;99.90
19435;DHT22;9853;50.848;4.108;2024-03-23T02:55:46;8.30;99.90
19435;DHT22;9853;50.848;4.108;2024-03-23T02:57:50;8.30;99.90
19435;DHT22;9853;50.848;4.108;2024-03-23T02:59:51;8.50;99.90
19435;DHT22;9853;50.848;4.108;2024-03-23T03:01:52;8.40;99.90
19435;DHT22;9853;50.848;4.108;2024-03-23T03:03:53;8.50;99.90
19435;DHT22;9853;50.848;4.108;2024-03-23T03:05:55;8.50;99.90
19435;DHT22;9853;50.848;4.108;2024-03-23T03:08:00;8.60;99.90
19435;DHT22;9853;50.848;4.108;2024-03-23T03:10:04;8.50;99.90
19435;DHT22;9853;50.848;4.108;2024-03-23T03:12:07;8.40;99.90
19435;DHT22;9853;50.848;4.108;2024-03-23T03:14:08;8.50;99.90
19435;DHT22;9853;50.848;4.108;2024-03-23T03:16:12;8.40;99.90
19435;DHT22;9853;50.848;4.108;2024-03-23T03:18:13;8.20;99.90
19435;DHT22;9853;50.848;4.108;2024-03-23T03:20:14;8.00;99.90
19435;DHT22;9853;50.848;4.108;2024-03-23T03:22:16;8.00;99.90
19435;DHT22;9853;50.848;4.108;2024-03-23T03:24:35;8.00;99.90
19435;DHT22;9853;50.848;4.108;2024-03-23T03:26:36;8.00;99.90
19435;DHT22;9853;50.848;4.108;2024-03-23T03:28:40;8.10;99.90
19435;DHT22;9853;50.848;4.108;2024-03-23T03:30:48;8.10;99.90
19435;DHT22;9853;50.848;4.108;2024-03-23T03:32:54;7.90;99.90
19435;DHT22;9853;50.848;4.108;2024-03-23T03:34:56;7.90;99.90
19435;DHT22;9853;50.848;4.108;2024-03-23T03:36:57;7.80;99.90
19435;DHT22;9853;50.848;4.108;2024-03-23T03:39:01;7.70;99.90
19435;DHT22;9853;50.848;4.108;2024-03-23T03:41:04;7.50;99.90
19435;DHT22;9853;50.848;4.108;2024-03-23T03:43:12;7.50;99.90
19435;DHT22;9853;50.848;4.108;2024-03-23T03:45:15;7.50;99.90
19435;DHT22;9853;50.848;4.108;2024-03-23T03:47:19;7.50;99.90
19435;DHT22;9853;50.848;4.108;2024-03-23T03:49:20;7.50;99.90
19435;DHT22;9853;50.848;4.108;2024-03-23T03:51:21;7.40;99.90
19435;DHT22;9853;50.848;4.108;2024-03-23T03:53:22;7.50;99.90
19435;DHT22;9853;50.848;4.108;2024-03-23T03:55:23;7.50;99.90
19435;DHT22;9853;50.848;4.108;2024-03-23T03:57:24;7.50;99.90
19435;DHT22;9853;50.848;4.108;2024-03-23T03:59:25;7.50;99.90
19435;DHT22;9853;50.848;4.108;2024-03-23T04:01:29;7.50;99.90
19435;DHT22;9853;50.848;4.108;2024-03-23T04:03:30;7.50;99.90
19435;DHT22;9853;50.848;4.108;2024-03-23T04:05:39;7.60;99.90
19435;DHT22;9853;50.848;4.108;2024-03-23T04:07:40;7.50;99.90
19435;DHT22;9853;50.848;4.108;2024-03-23T04:09:41;7.50;99.90
19435;DHT22;9853;50.848;4.108;2024-03-23T04:11:42;7.50;99.90
19435;DHT22;9853;50.848;4.108;2024-03-23T04:13:48;7.50;99.90
19435;DHT22;9853;50.848;4.108;2024-03-23T04:15:53;7.30;99.90
19435;DHT22;9853;50.848;4.108;2024-03-23T04:17:54;7.30;99.90
19435;DHT22;9853;50.848;4.108;2024-03-23T04:19:56;7.40;99.90
19435;DHT22;9853;50.848;4.108;2024-03-23T04:21:57;7.40;99.90
19435;DHT22;9853;50.848;4.108;2024-03-23T04:23:58;7.40;99.90
19435;DHT22;9853;50.848;4.108;2024-03-23T04:26:03;7.50;99.90
19435;DHT22;9853;50.848;4.108;2024-03-23T04:28:06;7.50;99.90
19435;DHT22;9853;50.848;4.108;2024-03-23T04:30:07;7.40;99.90
19435;DHT22;9853;50.848;4.108;2024-03-23T04:32:11;7.40;99.90
19435;DHT22;9853;50.848;4.108;2024-03-23T04:34:14;7.40;99.90
19435;DHT22;9853;50.848;4.108;2024-03-23T04:36:15;7.50;99.90
19435;DHT22;9853;50.848;4.108;2024-03-23T04:38:16;7.50;99.90
19435;DHT22;9853;50.848;4.108;2024-03-23T04:40:17;7.40;99.90
19435;DHT22;9853;50.848;4.108;2024-03-23T04:42:18;7.40;99.90
19435;DHT22;9853;50.848;4.108;2024-03-23T04:44:19;7.30;99.90
19435;DHT22;9853;50.848;4.108;2024-03-23T04:46:26;7.20;99.90
19435;DHT22;9853;50.848;4.108;2024-03-23T04:48:27;7.20;99.90
19435;DHT22;9853;50.848;4.108;2024-03-23T04:50:28;7.20;99.90
19435;DHT22;9853;50.848;4.108;2024-03-23T04:52:30;7.20;99.90
19435;DHT22;9853;50.848;4.108;2024-03-23T04:54:31;7.30;99.90
19435;DHT22;9853;50.848;4.108;2024-03-23T04:56:35;7.40;99.90
19435;DHT22;9853;50.848;4.108;2024-03-23T04:58:37;7.40;99.90
19435;DHT22;9853;50.848;4.108;2024-03-23T05:00:38;7.40;99.90
19435;DHT22;9853;50.848;4.108;2024-03-23T05:02:39;7.40;99.90
19435;DHT22;9853;50.848;4.108;2024-03-23T05:04:40;7.50;99.90
19435;DHT22;9853;50.848;4.108;2024-03-23T05:06:50;7.50;99.90
19435;DHT22;9853;50.848;4.108;2024-03-23T05:08:54;7.50;99.90
19435;DHT22;9853;50.848;4.108;2024-03-23T05:10:55;7.40;99.90
19435;DHT22;9853;50.848;4.108;2024-03-23T05:12:56;7.30;99.90
19435;DHT22;9853;50.848;4.108;2024-03-23T05:14:58;7.30;99.90
19435;DHT22;9853;50.848;4.108;2024-03-23T05:16:59;7.30;99.90
19435;DHT22;9853;50.848;4.108;2024-03-23T05:19:00;7.30;99.90
19435;DHT22;9853;50.848;4.108;2024-03-23T05:21:02;7.30;99.90
19435;DHT22;9853;50.848;4.108;2024-03-23T05:23:03;7.40;99.90
19435;DHT22;9853;50.848;4.108;2024-03-23T05:25:04;7.50;99.90
19435;DHT22;9853;50.848;4.108;2024-03-23T05:27:05;7.50;99.90
19435;DHT22;9853;50.848;4.108;2024-03-23T05:29:07;7.50;99.90
19435;DHT22;9853;50.848;4.108;2024-03-23T05:31:11;7.40;99.90
19435;DHT22;9853;50.848;4.108;2024-03-23T05:33:12;7.30;99.90
19435;DHT22;9853;50.848;4.108;2024-03-23T05:35:13;7.30;99.90
19435;DHT22;9853;50.848;4.108;2024-03-23T05:37:14;7.30;99.90
19435;DHT22;9853;50.848;4.108;2024-03-23T05:39:15;7.20;99.90
19435;DHT22;9853;50.848;4.108;2024-03-23T05:41:17;7.20;99.90
19435;DHT22;9853;50.848;4.108;2024-03-23T05:43:18;7.20;99.90
19435;DHT22;9853;50.848;4.108;2024-03-23T05:45:19;7.20;99.90
19435;DHT22;9853;50.848;4.108;2024-03-23T05:47:20;7.20;99.90
19435;DHT22;9853;50.848;4.108;2024-03-23T05:49:21;7.20;99.90
19435;DHT22;9853;50.848;4.108;2024-03-23T05:51:22;7.20;99.90
19435;DHT22;9853;50.848;4.108;2024-03-23T05:53:24;7.20;99.90
19435;DHT22;9853;50.848;4.108;2024-03-23T05:55:25;7.20;99.90
19435;DHT22;9853;50.848;4.108;2024-03-23T05:57:26;7.30;99.90
19435;DHT22;9853;50.848;4.108;2024-03-23T05:59:27;7.30;99.90
19435;DHT22;9853;50.848;4.108;2024-03-23T06:01:28;7.20;99.90
19435;DHT22;9853;50.848;4.108;2024-03-23T06:03:29;7.20;99.90
19435;DHT22;9853;50.848;4.108;2024-03-23T06:05:31;7.30;99.90
19435;DHT22;9853;50.848;4.108;2024-03-23T06:07:31;7.30;99.90
19435;DHT22;9853;50.848;4.108;2024-03-23T06:09:32;7.10;99.90
19435;DHT22;9853;50.848;4.108;2024-03-23T06:11:34;7.10;99.90
19435;DHT22;9853;50.848;4.108;2024-03-23T06:13:35;7.10;99.90
19435;DHT22;9853;50.848;4.108;2024-03-23T06:15:36;7.10;99.90
19435;DHT22;9853;50.848;4.108;2024-03-23T06:17:38;7.00;99.90
19435;DHT22;9853;50.848;4.108;2024-03-23T06:19:39;7.00;99.90
19435;DHT22;9853;50.848;4.108;2024-03-23T06:21:44;7.00;99.90
19435;DHT22;9853;50.848;4.108;2024-03-23T06:23:45;7.10;99.90
19435;DHT22;9853;50.848;4.108;2024-03-23T06:25:51;7.20;99.90
19435;DHT22;9853;50.848;4.108;2024-03-23T06:27:52;7.30;99.90
19435;DHT22;9853;50.848;4.108;2024-03-23T06:29:53;7.20;99.90
19435;DHT22;9853;50.848;4.108;2024-03-23T06:31:54;7.20;99.90
19435;DHT22;9853;50.848;4.108;2024-03-23T06:33:55;7.10;99.90
19435;DHT22;9853;50.848;4.108;2024-03-23T06:35:56;7.10;99.90
19435;DHT22;9853;50.848;4.108;2024-03-23T06:37:58;7.10;99.90
19435;DHT22;9853;50.848;4.108;2024-03-23T06:39:59;7.30;99.90
19435;DHT22;9853;50.848;4.108;2024-03-23T06:42:00;7.20;99.90
19435;DHT22;9853;50.848;4.108;2024-03-23T06:44:01;7.30;99.90
19435;DHT22;9853;50.848;4.108;2024-03-23T06:46:02;7.40;99.90
19435;DHT22;9853;50.848;4.108;2024-03-23T06:48:05;7.60;99.90
19435;DHT22;9853;50.848;4.108;2024-03-23T06:50:08;7.70;99.90
19435;DHT22;9853;50.848;4.108;2024-03-23T06:52:11;7.60;99.90
19435;DHT22;9853;50.848;4.108;2024-03-23T06:54:12;7.70;99.90
19435;DHT22;9853;50.848;4.108;2024-03-23T06:56:13;7.50;99.90
19435;DHT22;9853;50.848;4.108;2024-03-23T06:58:14;7.50;99.90
19435;DHT22;9853;50.848;4.108;2024-03-23T07:00:15;7.60;99.90
19435;DHT22;9853;50.848;4.108;2024-03-23T07:02:16;7.60;99.90
19435;DHT22;9853;50.848;4.108;2024-03-23T07:04:17;7.60;99.90
19435;DHT22;9853;50.848;4.108;2024-03-23T07:06:19;7.60;99.90
19435;DHT22;9853;50.848;4.108;2024-03-23T07:08:20;7.40;99.90
19435;DHT22;9853;50.848;4.108;2024-03-23T07:10:22;7.30;99.90
19435;DHT22;9853;50.848;4.108;2024-03-23T07:12:23;7.20;99.90
19435;DHT22;9853;50.848;4.108;2024-03-23T07:14:25;7.10;99.90
19435;DHT22;9853;50.848;4.108;2024-03-23T07:16:27;7.30;99.90
19435;DHT22;9853;50.848;4.108;2024-03-23T07:18:27;7.50;99.90
19435;DHT22;9853;50.848;4.108;2024-03-23T07:20:29;8.20;99.90
19435;DHT22;9853;50.848;4.108;2024-03-23T07:22:32;8.80;99.90
19435;DHT22;9853;50.848;4.108;2024-03-23T07:24:33;10.00;99.90
19435;DHT22;9853;50.848;4.108;2024-03-23T07:26:34;10.70;99.90
19435;DHT22;9853;50.848;4.108;2024-03-23T07:28:35;11.50;99.90
19435;DHT22;9853;50.848;4.108;2024-03-23T07:30:40;11.10;99.90
19435;DHT22;9853;50.848;4.108;2024-03-23T07:32:40;11.60;99.90
19435;DHT22;9853;50.848;4.108;2024-03-23T07:34:44;12.00;99.90
19435;DHT22;9853;50.848;4.108;2024-03-23T07:36:45;12.40;99.90
19435;DHT22;9853;50.848;4.108;2024-03-23T07:38:46;12.10;99.90
19435;DHT22;9853;50.848;4.108;2024-03-23T07:40:47;11.20;99.90
19435;DHT22;9853;50.848;4.108;2024-03-23T07:42:50;10.60;99.90
19435;DHT22;9853;50.848;4.108;2024-03-23T07:44:52;10.30;99.90
19435;DHT22;9853;50.848;4.108;2024-03-23T07:46:54;10.20;99.90
19435;DHT22;9853;50.848;4.108;2024-03-23T07:48:55;10.10;99.90
19435;DHT22;9853;50.848;4.108;2024-03-23T07:51:07;10.90;99.90
19435;DHT22;9853;50.848;4.108;2024-03-23T07:53:10;10.80;99.90
19435;DHT22;9853;50.848;4.108;2024-03-23T07:55:11;10.60;99.90
19435;DHT22;9853;50.848;4.108;2024-03-23T07:57:12;10.70;99.90
19435;DHT22;9853;50.848;4.108;2024-03-23T07:59:13;10.50;99.90
19435;DHT22;9853;50.848;4.108;2024-03-23T08:01:15;10.90;99.90
19435;DHT22;9853;50.848;4.108;2024-03-23T08:03:16;11.20;99.90
19435;DHT22;9853;50.848;4.108;2024-03-23T08:05:17;11.10;99.90
19435;DHT22;9853;50.848;4.108;2024-03-23T08:07:18;10.90;99.90
19435;DHT22;9853;50.848;4.108;2024-03-23T08:09:19;11.20;99.90
19435;DHT22;9853;50.848;4.108;2024-03-23T08:11:20;11.40;99.90
19435;DHT22;9853;50.848;4.108;2024-03-23T08:13:21;11.10;99.90
19435;DHT22;9853;50.848;4.108;2024-03-23T08:15:22;10.90;99.90
19435;DHT22;9853;50.848;4.108;2024-03-23T08:17:23;10.80;99.90
19435;DHT22;9853;50.848;4.108;2024-03-23T08:19:24;10.70;99.90
19435;DHT22;9853;50.848;4.108;2024-03-23T08:21:25;11.30;99.90
19435;DHT22;9853;50.848;4.108;2024-03-23T08:23:32;11.10;99.90
19435;DHT22;9853;50.848;4.108;2024-03-23T08:25:38;11.40;99.90
19435;DHT22;9853;50.848;4.108;2024-03-23T08:27:39;11.70;99.90
19435;DHT22;9853;50.848;4.108;2024-03-23T08:29:40;11.40;99.90
19435;DHT22;9853;50.848;4.108;2024-03-23T08:31:41;11.50;99.90
19435;DHT22;9853;50.848;4.108;2024-03-23T08:33:42;11.30;99.90
19435;DHT22;9853;50.848;4.108;2024-03-23T08:35:56;11.90;99.90
19435;DHT22;9853;50.848;4.108;2024-03-23T08:37:57;12.10;99.90
19435;DHT22;9853;50.848;4.108;2024-03-23T08:39:58;12.00;99.90
19435;DHT22;9853;50.848;4.108;2024-03-23T08:41:59;12.30;99.90
19435;DHT22;9853;50.848;4.108;2024-03-23T08:44:00;12.60;99.90
19435;DHT22;9853;50.848;4.108;2024-03-23T08:46:08;12.30;99.90
19435;DHT22;9853;50.848;4.108;2024-03-23T08:48:09;12.20;99.90
19435;DHT22;9853;50.848;4.108;2024-03-23T08:50:10;11.60;99.90
19435;DHT22;9853;50.848;4.108;2024-03-23T08:52:11;11.70;99.90
19435;DHT22;9853;50.848;4.108;2024-03-23T08:54:12;11.50;99.90
19435;DHT22;9853;50.848;4.108;2024-03-23T08:56:13;11.50;99.90
19435;DHT22;9853;50.848;4.108;2024-03-23T08:58:16;11.80;99.90
19435;DHT22;9853;50.848;4.108;2024-03-23T16:52:29;11.10;99.90
19435;DHT22;9853;50.848;4.108;2024-03-23T16:54:51;11.20;99.90
19435;DHT22;9853;50.848;4.108;2024-03-23T16:56:58;11.40;99.90
19435;DHT22;9853;50.848;4.108;2024-03-23T16:59:01;11.40;99.90
19435;DHT22;9853;50.848;4.108;2024-03-23T17:01:11;11.40;99.90
19435;DHT22;9853;50.848;4.108;2024-03-23T17:03:19;11.40;99.90
19435;DHT22;9853;50.848;4.108;2024-03-23T17:05:58;11.20;99.90
19435;DHT22;9853;50.848;4.108;2024-03-23T17:08:11;11.10;99.90
19435;DHT22;9853;50.848;4.108;2024-03-23T17:10:28;10.90;99.90
19435;DHT22;9853;50.848;4.108;2024-03-23T17:12:52;10.90;99.90
19435;DHT22;9853;50.848;4.108;2024-03-23T17:15:03;11.00;99.90
19435;DHT22;9853;50.848;4.108;2024-03-23T17:17:18;10.90;99.90
19435;DHT22;9853;50.848;4.108;2024-03-23T17:19:32;10.90;99.90
19435;DHT22;9853;50.848;4.108;2024-03-23T17:21:56;11.00;99.90
19435;DHT22;9853;50.848;4.108;2024-03-23T17:24:07;11.00;99.90
19435;DHT22;9853;50.848;4.108;2024-03-23T17:29:52;10.60;99.90
19435;DHT22;9853;50.848;4.108;2024-03-23T17:42:58;8.20;99.90
